Time;durP1;ratioP1;P1;durP2;ratioP2;P2;SDS_P1;SDS_P2;PMS_P1;PMS_P2;Temp;Humidity;BMP_temperature;BMP_pressure;BME280_temperature;BME280_humidity;BME280_pressure;Samples;Min_cycle;Max_cycle;Signal;HPM_P1;HPM_P2
2022/05/22 00:02:18;;;;;;;15.00;11.15;;;;;;;;;;5014938;28;20051;-71
2022/05/22 00:04:44;;;;;;;14.10;11.20;;;;;;;;;;5015039;28;20037;-71
2022/05/22 00:07:10;;;;;;;19.05;11.00;;;;;;;;;;5014677;28;20605;-71
2022/05/22 00:09:37;;;;;;;16.02;11.32;;;;;;;;;;5015019;28;20084;-71
2022/05/22 00:12:04;;;;;;;16.77;11.70;;;;;;;;;;5014971;28;20104;-71
2022/05/22 00:14:31;;;;;;;15.38;11.60;;;;;;;;;;5015235;28;20042;-71
2022/05/22 00:16:59;;;;;;;16.63;11.52;;;;;;;;;;5015023;28;20076;-71
2022/05/22 00:19:29;;;;;;;13.10;11.15;;;;;;;;;;5014985;28;20068;-71
2022/05/22 00:21:55;;;;;;;13.30;11.60;;;;;;;;;;5014905;28;20058;-71
2022/05/22 00:24:23;;;;;;;15.02;11.38;;;;;;;;;;5014669;28;20042;-71
2022/05/22 00:26:49;;;;;;;13.10;11.27;;;;;;;;;;5014784;28;20081;-70
2022/05/22 00:29:16;;;;;;;14.25;11.07;;;;;;;;;;5014616;28;20037;-71
2022/05/22 00:31:42;;;;;;;16.92;11.27;;;;;;;;;;5014078;28;20045;-71
2022/05/22 00:34:08;;;;;;;13.10;11.48;;;;;;;;;;5015354;28;20069;-71
2022/05/22 00:36:35;;;;;;;16.15;11.32;;;;;;;;;;5014763;28;20104;-71
2022/05/22 00:39:01;;;;;;;14.27;11.75;;;;;;;;;;5015347;28;20077;-71
2022/05/22 00:41:28;;;;;;;26.25;12.63;;;;;;;;;;5014410;28;20492;-71
2022/05/22 00:43:55;;;;;;;14.35;11.43;;;;;;;;;;5014632;28;20068;-71
2022/05/22 00:46:21;;;;;;;17.98;11.35;;;;;;;;;;5014879;28;20057;-71
2022/05/22 00:48:49;;;;;;;18.08;11.02;;;;;;;;;;5014686;28;20034;-71
2022/05/22 00:51:15;;;;;;;15.95;11.25;;;;;;;;;;5014389;28;20540;-71
2022/05/22 00:53:54;;;;;;;13.75;11.00;;;;;;;;;;5014347;28;20080;-71
2022/05/22 00:56:24;;;;;;;14.75;11.80;;;;;;;;;;5014672;28;20054;-71
2022/05/22 00:58:51;;;;;;;15.73;11.32;;;;;;;;;;5014855;28;20477;-71
2022/05/22 01:01:17;;;;;;;13.38;11.32;;;;;;;;;;5014582;28;20638;-71
2022/05/22 01:03:44;;;;;;;12.38;10.38;;;;;;;;;;5014231;28;20068;-71
2022/05/22 01:06:20;;;;;;;13.95;11.32;;;;;;;;;;5013734;28;20141;-71
2022/05/22 01:08:49;;;;;;;12.85;11.00;;;;;;;;;;5015041;28;20068;-71
2022/05/22 01:11:16;;;;;;;14.85;11.27;;;;;;;;;;5014100;28;20042;-71
2022/05/22 01:13:47;;;;;;;12.20;11.00;;;;;;;;;;5014733;28;20050;-71
2022/05/22 01:16:13;;;;;;;15.15;11.35;;;;;;;;;;5014471;28;20045;-71
2022/05/22 01:18:47;;;;;;;12.63;10.95;;;;;;;;;;5014936;28;20183;-71
2022/05/22 01:21:15;;;;;;;12.10;10.90;;;;;;;;;;5013887;28;20504;-71
2022/05/22 01:23:42;;;;;;;14.15;11.82;;;;;;;;;;5014363;28;20042;-71
2022/05/22 01:26:08;;;;;;;13.23;11.05;;;;;;;;;;5014640;28;20038;-71
2022/05/22 01:28:34;;;;;;;14.35;11.23;;;;;;;;;;5014253;28;20041;-71
2022/05/22 01:31:01;;;;;;;16.10;11.50;;;;;;;;;;5014189;28;20042;-71
2022/05/22 01:33:27;;;;;;;18.38;12.18;;;;;;;;;;5014249;28;20050;-71
2022/05/22 01:35:53;;;;;;;12.50;11.20;;;;;;;;;;5014121;28;20056;-71
2022/05/22 01:38:20;;;;;;;17.52;11.35;;;;;;;;;;5014225;28;20038;-71
2022/05/22 01:40:46;;;;;;;12.88;11.02;;;;;;;;;;5014149;28;20052;-71
2022/05/22 01:43:13;;;;;;;13.70;11.07;;;;;;;;;;5015049;28;20046;-71
2022/05/22 01:45:41;;;;;;;14.38;11.07;;;;;;;;;;5018213;28;20040;-71
2022/05/22 01:48:07;;;;;;;13.25;10.77;;;;;;;;;;5017981;28;20052;-71
2022/05/22 01:50:34;;;;;;;13.15;10.98;;;;;;;;;;5017386;28;20034;-71
2022/05/22 01:53:00;;;;;;;16.30;11.50;;;;;;;;;;5017570;28;20136;-71
2022/05/22 01:55:27;;;;;;;17.73;11.70;;;;;;;;;;5017477;28;20125;-71
2022/05/22 01:57:53;;;;;;;17.40;11.27;;;;;;;;;;5017245;28;20046;-71
2022/05/22 02:00:20;;;;;;;15.80;11.25;;;;;;;;;;5017225;28;20093;-71
2022/05/22 02:02:46;;;;;;;13.82;11.05;;;;;;;;;;5017397;28;20044;-71
2022/05/22 02:05:13;;;;;;;16.48;11.15;;;;;;;;;;5017365;28;20042;-71
2022/05/22 02:10:24;;;;;;;13.73;11.25;;;;;;;;;;5017017;28;20515;-71
2022/05/22 02:12:51;;;;;;;11.15;9.77;;;;;;;;;;5017618;28;20046;-71
2022/05/22 02:15:18;;;;;;;14.55;10.48;;;;;;;;;;5017956;28;20076;-71
2022/05/22 02:17:44;;;;;;;12.15;10.80;;;;;;;;;;5017681;28;20037;-71
2022/05/22 02:20:10;;;;;;;13.73;11.68;;;;;;;;;;5016974;28;20042;-71
2022/05/22 02:22:43;;;;;;;13.35;11.27;;;;;;;;;;5017437;28;20092;-71
2022/05/22 02:25:10;;;;;;;12.73;11.13;;;;;;;;;;5017611;28;20053;-71
2022/05/22 02:27:36;;;;;;;12.60;10.48;;;;;;;;;;5017571;28;20100;-71
2022/05/22 02:30:02;;;;;;;12.73;10.63;;;;;;;;;;5017278;28;20149;-71
2022/05/22 02:32:29;;;;;;;18.63;10.73;;;;;;;;;;5017140;28;20045;-71
2022/05/22 02:34:55;;;;;;;13.73;10.48;;;;;;;;;;5016394;28;20042;-71
2022/05/22 02:37:21;;;;;;;14.15;10.32;;;;;;;;;;5016825;28;20132;-71
2022/05/22 02:39:48;;;;;;;17.73;11.15;;;;;;;;;;5017072;28;20042;-71
2022/05/22 02:42:14;;;;;;;13.68;10.95;;;;;;;;;;5016660;28;20096;-71
2022/05/22 02:44:40;;;;;;;15.70;10.65;;;;;;;;;;5017356;28;20044;-71
2022/05/22 02:47:07;;;;;;;13.68;10.60;;;;;;;;;;5016626;28;20100;-71
2022/05/22 02:49:33;;;;;;;14.40;11.07;;;;;;;;;;5017130;28;20064;-71
2022/05/22 02:52:00;;;;;;;12.90;10.82;;;;;;;;;;5016283;28;20053;-71
2022/05/22 02:54:26;;;;;;;11.95;10.45;;;;;;;;;;5016232;28;20136;-71
2022/05/22 02:56:53;;;;;;;15.48;10.70;;;;;;;;;;5016296;28;20054;-71
2022/05/22 02:59:19;;;;;;;12.35;10.48;;;;;;;;;;5016684;28;20037;-71
2022/05/22 03:01:45;;;;;;;11.57;10.38;;;;;;;;;;5016566;28;20125;-71
2022/05/22 03:04:11;;;;;;;11.85;10.43;;;;;;;;;;5016518;28;20096;-71
2022/05/22 03:06:40;;;;;;;12.73;11.30;;;;;;;;;;5015560;28;20057;-71
2022/05/22 03:09:08;;;;;;;13.02;11.13;;;;;;;;;;5016218;28;20065;-71
2022/05/22 03:11:36;;;;;;;12.23;10.70;;;;;;;;;;5016018;28;20076;-71
2022/05/22 03:14:03;;;;;;;13.38;10.65;;;;;;;;;;5015770;28;20041;-71
2022/05/22 03:16:29;;;;;;;12.93;10.82;;;;;;;;;;5016028;28;20073;-71
2022/05/22 03:18:55;;;;;;;14.77;11.02;;;;;;;;;;5015894;28;20485;-71
2022/05/22 03:21:21;;;;;;;13.77;10.40;;;;;;;;;;5015804;28;20076;-71
2022/05/22 03:23:47;;;;;;;12.45;10.38;;;;;;;;;;5015820;28;20084;-71
2022/05/22 03:26:13;;;;;;;15.57;10.63;;;;;;;;;;5015899;28;20046;-71
2022/05/22 03:28:39;;;;;;;14.52;11.20;;;;;;;;;;5015859;28;20034;-71
2022/05/22 03:31:05;;;;;;;15.23;11.15;;;;;;;;;;5015416;28;20104;-71
2022/05/22 03:33:32;;;;;;;15.00;11.00;;;;;;;;;;5016030;28;20092;-71
2022/05/22 03:35:58;;;;;;;14.30;10.50;;;;;;;;;;5015154;28;20050;-71
2022/05/22 03:38:25;;;;;;;11.68;10.48;;;;;;;;;;5015177;28;20176;-71
2022/05/22 03:40:51;;;;;;;13.40;10.38;;;;;;;;;;5015362;28;20052;-71
2022/05/22 03:43:17;;;;;;;12.38;10.02;;;;;;;;;;5015793;28;20038;-71
2022/05/22 03:45:44;;;;;;;13.30;10.88;;;;;;;;;;5015984;28;20050;-71
2022/05/22 03:48:11;;;;;;;11.43;10.20;;;;;;;;;;5015617;28;20136;-71
2022/05/22 03:50:37;;;;;;;12.88;10.68;;;;;;;;;;5015062;28;20041;-71
2022/05/22 03:53:04;;;;;;;13.35;9.68;;;;;;;;;;5015499;28;20042;-71
2022/05/22 03:55:30;;;;;;;12.63;10.15;;;;;;;;;;5015538;28;20045;-71
2022/05/22 03:57:58;;;;;;;11.25;10.07;;;;;;;;;;5014941;28;20034;-71
2022/05/22 04:00:24;;;;;;;14.45;9.55;;;;;;;;;;5015092;28;20041;-71
2022/05/22 04:02:51;;;;;;;12.40;9.90;;;;;;;;;;5014937;28;20045;-71
2022/05/22 04:05:17;;;;;;;12.85;10.18;;;;;;;;;;5014424;28;20500;-71
2022/05/22 04:07:46;;;;;;;15.00;10.70;;;;;;;;;;5014903;28;20111;-71
2022/05/22 04:10:14;;;;;;;13.35;10.23;;;;;;;;;;5015121;28;20041;-71
2022/05/22 04:12:42;;;;;;;12.55;9.65;;;;;;;;;;5014699;28;20488;-71
2022/05/22 04:15:09;;;;;;;14.80;9.60;;;;;;;;;;5014760;28;20042;-71
2022/05/22 04:17:36;;;;;;;11.43;9.73;;;;;;;;;;5015118;28;20077;-71
2022/05/22 04:20:02;;;;;;;14.63;9.65;;;;;;;;;;5015312;28;20100;-71
2022/05/22 04:22:28;;;;;;;12.68;9.45;;;;;;;;;;5014858;28;20064;-71
2022/05/22 04:25:13;;;;;;;11.30;9.48;;;;;;;;;;5015784;28;20042;-71
2022/05/22 04:27:43;;;;;;;11.95;9.30;;;;;;;;;;5014296;28;20038;-71
2022/05/22 04:30:17;;;;;;;11.35;9.85;;;;;;;;;;5014887;28;20034;-71
2022/05/22 04:32:43;;;;;;;12.70;9.15;;;;;;;;;;5014444;28;20041;-71
2022/05/22 04:35:10;;;;;;;12.60;9.13;;;;;;;;;;5014044;28;20049;-71
2022/05/22 04:37:36;;;;;;;14.18;9.88;;;;;;;;;;5014801;28;20045;-71
2022/05/22 04:40:02;;;;;;;14.15;9.40;;;;;;;;;;5014379;28;20072;-71
2022/05/22 04:42:28;;;;;;;14.32;9.38;;;;;;;;;;5014740;28;20049;-71
2022/05/22 04:44:54;;;;;;;13.35;8.43;;;;;;;;;;5014634;28;20046;-71
2022/05/22 04:47:20;;;;;;;10.85;8.82;;;;;;;;;;5014685;28;20033;-71
2022/05/22 04:49:49;;;;;;;12.07;9.00;;;;;;;;;;5015067;28;20045;-71
2022/05/22 04:52:15;;;;;;;11.93;8.98;;;;;;;;;;5014505;28;20042;-71
2022/05/22 04:54:42;;;;;;;9.52;8.52;;;;;;;;;;5014590;28;20382;-71
2022/05/22 04:57:08;;;;;;;10.52;8.68;;;;;;;;;;5014337;28;20038;-71
2022/05/22 04:59:34;;;;;;;13.50;9.07;;;;;;;;;;5014622;28;20104;-71
2022/05/22 05:02:01;;;;;;;10.05;8.02;;;;;;;;;;5014423;28;20116;-71
2022/05/22 05:04:27;;;;;;;9.68;8.45;;;;;;;;;;5014534;28;20038;-71
2022/05/22 05:06:54;;;;;;;10.02;8.27;;;;;;;;;;5013936;28;20054;-71
2022/05/22 05:09:21;;;;;;;8.80;7.57;;;;;;;;;;5014419;28;20085;-71
2022/05/22 05:11:47;;;;;;;14.88;8.70;;;;;;;;;;5014348;28;20045;-71
2022/05/22 05:14:13;;;;;;;9.27;8.38;;;;;;;;;;5014443;28;20045;-71
2022/05/22 05:16:40;;;;;;;9.13;7.65;;;;;;;;;;5014605;28;20042;-71
2022/05/22 05:19:06;;;;;;;9.32;7.72;;;;;;;;;;5017127;28;20048;-71
2022/05/22 05:21:32;;;;;;;11.50;7.75;;;;;;;;;;5018031;28;20046;-71
2022/05/22 05:23:58;;;;;;;8.73;7.70;;;;;;;;;;5018197;28;20042;-71
2022/05/22 05:26:24;;;;;;;13.10;7.70;;;;;;;;;;5018141;28;20038;-71
2022/05/22 05:28:51;;;;;;;10.70;8.50;;;;;;;;;;5018128;28;20069;-71
2022/05/22 05:31:17;;;;;;;11.52;7.93;;;;;;;;;;5017649;28;20125;-71
2022/05/22 05:33:43;;;;;;;9.50;7.55;;;;;;;;;;5018248;28;20042;-71
2022/05/22 05:36:10;;;;;;;8.13;7.25;;;;;;;;;;5018015;28;20042;-71
2022/05/22 05:38:37;;;;;;;9.88;7.28;;;;;;;;;;5018451;28;20497;-71
2022/05/22 05:41:03;;;;;;;7.93;6.72;;;;;;;;;;5017975;28;20188;-71
2022/05/22 05:43:29;;;;;;;8.82;6.57;;;;;;;;;;5018073;28;20049;-71
2022/05/22 05:45:55;;;;;;;10.18;7.65;;;;;;;;;;5018047;28;20116;-71
2022/05/22 05:48:22;;;;;;;8.05;6.53;;;;;;;;;;5017760;28;20115;-71
2022/05/22 05:50:48;;;;;;;9.27;6.72;;;;;;;;;;5017630;28;20049;-71
2022/05/22 05:53:14;;;;;;;8.60;6.85;;;;;;;;;;5018186;28;20177;-71
2022/05/22 05:55:40;;;;;;;8.77;6.70;;;;;;;;;;5016955;28;20072;-71
2022/05/22 05:58:07;;;;;;;8.30;6.90;;;;;;;;;;5017268;28;20121;-71
2022/05/22 06:00:33;;;;;;;11.57;6.78;;;;;;;;;;5017196;28;20381;-71
2022/05/22 06:03:00;;;;;;;8.95;6.88;;;;;;;;;;5017209;28;20084;-71
2022/05/22 06:05:26;;;;;;;8.10;6.40;;;;;;;;;;5016686;28;20057;-71
2022/05/22 06:07:53;;;;;;;7.15;6.25;;;;;;;;;;5017091;28;20065;-71
2022/05/22 06:10:20;;;;;;;8.27;6.40;;;;;;;;;;5017231;28;20041;-71
2022/05/22 06:12:46;;;;;;;9.27;6.40;;;;;;;;;;5016998;28;20496;-71
2022/05/22 06:15:13;;;;;;;7.28;6.38;;;;;;;;;;5017156;28;20129;-71
2022/05/22 06:17:43;;;;;;;8.48;6.72;;;;;;;;;;5017153;28;20030;-71
2022/05/22 06:20:11;;;;;;;8.82;7.80;;;;;;;;;;5017723;28;20033;-71
2022/05/22 06:22:38;;;;;;;9.18;6.68;;;;;;;;;;5016809;28;20160;-71
2022/05/22 06:25:07;;;;;;;8.77;6.40;;;;;;;;;;5017380;28;20520;-71
2022/05/22 06:27:33;;;;;;;10.80;6.90;;;;;;;;;;5016743;28;20041;-71
2022/05/22 06:30:00;;;;;;;8.93;6.15;;;;;;;;;;5015731;28;20042;-71
2022/05/22 06:32:26;;;;;;;8.48;6.28;;;;;;;;;;5016865;28;20045;-71
2022/05/22 06:34:52;;;;;;;7.28;6.57;;;;;;;;;;5017193;28;20054;-71
2022/05/22 06:37:19;;;;;;;10.70;5.93;;;;;;;;;;5017368;28;20038;-71
2022/05/22 06:39:53;;;;;;;11.05;6.25;;;;;;;;;;5016815;28;20493;-71
2022/05/22 06:42:34;;;;;;;8.20;5.90;;;;;;;;;;5016756;28;20074;-71
2022/05/22 06:45:00;;;;;;;;;;;;;;;;;;5016833;28;20116;-71
2022/05/22 06:47:28;;;;;;;9.90;6.15;;;;;;;;;;5016579;28;19914;-71
2022/05/22 06:49:54;;;;;;;7.35;5.63;;;;;;;;;;5016391;28;20042;-71
2022/05/22 06:52:21;;;;;;;7.72;6.10;;;;;;;;;;5016462;28;20038;-71
2022/05/22 06:54:47;;;;;;;7.50;5.57;;;;;;;;;;5017114;28;20058;-71
2022/05/22 06:57:18;;;;;;;6.40;5.13;;;;;;;;;;5016060;28;20088;-71
2022/05/22 06:59:45;;;;;;;6.68;5.20;;;;;;;;;;5016028;28;20092;-71
2022/05/22 07:02:12;;;;;;;9.35;5.40;;;;;;;;;;5015967;28;20069;-71
2022/05/22 07:04:38;;;;;;;8.27;5.10;;;;;;;;;;5016793;28;20041;-71
2022/05/22 07:07:04;;;;;;;7.55;5.00;;;;;;;;;;5015599;28;20557;-71
2022/05/22 07:09:30;;;;;;;9.85;5.68;;;;;;;;;;5016209;28;20034;-71
2022/05/22 07:11:59;;;;;;;9.00;5.95;;;;;;;;;;5015813;28;20651;-71
2022/05/22 07:14:26;;;;;;;9.20;5.50;;;;;;;;;;5016178;28;20136;-71
2022/05/22 07:16:52;;;;;;;9.02;5.20;;;;;;;;;;5015762;28;20413;-71
2022/05/22 07:19:19;;;;;;;7.60;5.15;;;;;;;;;;5015651;28;20481;-71
2022/05/22 07:21:45;;;;;;;11.75;5.38;;;;;;;;;;5015674;28;20042;-71
2022/05/22 07:24:11;;;;;;;8.02;5.50;;;;;;;;;;5016134;28;20041;-71
2022/05/22 07:26:37;;;;;;;8.00;5.63;;;;;;;;;;5016060;28;20107;-71
2022/05/22 07:29:04;;;;;;;8.73;5.88;;;;;;;;;;5015853;28;20425;-71
2022/05/22 07:31:32;;;;;;;7.93;5.68;;;;;;;;;;5015461;28;20050;-71
2022/05/22 07:33:59;;;;;;;11.77;5.65;;;;;;;;;;5015606;28;20065;-71
2022/05/22 07:36:25;;;;;;;11.27;6.47;;;;;;;;;;5015710;28;20045;-71
2022/05/22 07:38:51;;;;;;;9.23;6.20;;;;;;;;;;5015603;28;20038;-71
2022/05/22 07:41:19;;;;;;;7.30;5.95;;;;;;;;;;5014163;28;20054;-71
2022/05/22 07:43:45;;;;;;;10.95;6.13;;;;;;;;;;5009606;28;20038;-71
2022/05/22 07:46:13;;;;;;;9.65;5.78;;;;;;;;;;4997151;28;20046;-71
2022/05/22 07:48:41;;;;;;;11.48;6.40;;;;;;;;;;4996909;28;20493;-71
2022/05/22 07:51:07;;;;;;;11.57;6.50;;;;;;;;;;5008405;28;20049;-71
2022/05/22 07:53:34;;;;;;;8.80;6.38;;;;;;;;;;5003013;28;20050;-71
2022/05/22 07:56:01;;;;;;;8.90;5.90;;;;;;;;;;5010501;28;20045;-71
2022/05/22 07:58:28;;;;;;;7.50;4.53;;;;;;;;;;5015210;28;20084;-70
2022/05/22 08:00:55;;;;;;;8.75;5.03;;;;;;;;;;5015249;28;20053;-70
2022/05/22 08:03:22;;;;;;;8.70;5.05;;;;;;;;;;4996195;28;20034;-71
2022/05/22 08:05:48;;;;;;;8.50;5.40;;;;;;;;;;4996269;28;20054;-69
2022/05/22 08:08:16;;;;;;;8.60;5.05;;;;;;;;;;5000217;28;20122;-70
2022/05/22 08:10:42;;;;;;;7.80;5.18;;;;;;;;;;4995027;28;20034;-71
2022/05/22 08:13:09;;;;;;;7.55;4.85;;;;;;;;;;4995451;28;20046;-71
2022/05/22 08:15:36;;;;;;;5.57;4.18;;;;;;;;;;4995142;28;20481;-70
2022/05/22 08:18:03;;;;;;;9.45;4.38;;;;;;;;;;4995873;28;20035;-70
2022/05/22 08:20:33;;;;;;;7.30;4.75;;;;;;;;;;4995092;28;20054;-71
2022/05/22 08:23:01;;;;;;;13.50;4.93;;;;;;;;;;5014525;28;20076;-71
2022/05/22 08:25:27;;;;;;;8.90;4.68;;;;;;;;;;5014865;28;20057;-71
2022/05/22 08:27:54;;;;;;;6.10;3.90;;;;;;;;;;5001800;28;20046;-71
2022/05/22 08:30:21;;;;;;;8.57;3.72;;;;;;;;;;5013917;28;20048;-71
2022/05/22 08:32:48;;;;;;;10.38;4.07;;;;;;;;;;5008094;28;20034;-71
2022/05/22 08:35:16;;;;;;;10.27;3.60;;;;;;;;;;4995595;28;20066;-71
2022/05/22 08:37:43;;;;;;;6.20;3.25;;;;;;;;;;4994663;28;20038;-71
2022/05/22 08:40:10;;;;;;;6.00;3.20;;;;;;;;;;5011302;28;20037;-71
2022/05/22 08:42:40;;;;;;;5.18;3.30;;;;;;;;;;5014614;28;20037;-70
2022/05/22 08:45:10;;;;;;;4.95;3.20;;;;;;;;;;5007370;28;20547;-73
2022/05/22 08:47:40;;;;;;;4.63;3.30;;;;;;;;;;4995045;28;20052;-70
2022/05/22 08:50:11;;;;;;;7.20;3.45;;;;;;;;;;5003254;28;20044;-70
2022/05/22 08:52:43;;;;;;;10.85;4.00;;;;;;;;;;5002945;28;20046;-70
2022/05/22 08:55:12;;;;;;;5.88;3.47;;;;;;;;;;4993095;28;20120;-70
2022/05/22 09:00:24;;;;;;;6.07;3.67;;;;;;;;;;5001484;28;20819;-71
2022/05/22 09:03:00;;;;;;;4.18;3.20;;;;;;;;;;5018645;28;20048;-70
2022/05/22 09:05:29;;;;;;;5.13;3.28;;;;;;;;;;5014335;28;20062;-70
2022/05/22 09:07:58;;;;;;;4.85;2.97;;;;;;;;;;5013677;28;20038;-71
2022/05/22 09:10:27;;;;;;;4.93;3.20;;;;;;;;;;5009152;28;20069;-71
2022/05/22 09:12:56;;;;;;;4.95;3.10;;;;;;;;;;5001544;28;20084;-71
2022/05/22 09:15:27;;;;;;;4.93;3.13;;;;;;;;;;5004738;28;20128;-71
2022/05/22 09:18:00;;;;;;;5.38;3.28;;;;;;;;;;4998794;28;20120;-71
2022/05/22 09:20:47;;;;;;;3.88;3.20;;;;;;;;;;4998454;28;20045;-71
2022/05/22 09:23:25;;;;;;;3.90;3.05;;;;;;;;;;4998754;28;20046;-71
2022/05/22 09:26:10;;;;;;;4.13;2.67;;;;;;;;;;4997939;28;20382;-71
2022/05/22 09:28:36;;;;;;;4.38;3.10;;;;;;;;;;4998851;28;20070;-71
2022/05/22 09:31:13;;;;;;;6.38;2.97;;;;;;;;;;4980856;28;20498;-71
2022/05/22 09:33:58;;;;;;;3.72;2.85;;;;;;;;;;4998670;28;20038;-72
2022/05/22 09:36:33;;;;;;;5.95;3.05;;;;;;;;;;4998442;28;20047;-72
2022/05/22 09:39:02;;;;;;;8.35;3.05;;;;;;;;;;4998328;28;20092;-71
2022/05/22 09:41:47;;;;;;;9.75;3.03;;;;;;;;;;4980751;28;20050;-72
2022/05/22 09:44:20;;;;;;;14.30;3.83;;;;;;;;;;4999224;28;20059;-73
2022/05/22 09:46:53;;;;;;;7.15;3.30;;;;;;;;;;5005423;28;20046;-72
2022/05/22 09:49:20;;;;;;;7.57;3.50;;;;;;;;;;5000790;28;20045;-72
2022/05/22 09:52:09;;;;;;;5.47;2.88;;;;;;;;;;4998307;28;20095;-72
2022/05/22 09:54:58;;;;;;;5.38;2.58;;;;;;;;;;5011925;28;20049;-72
2022/05/22 09:57:37;;;;;;;4.65;3.03;;;;;;;;;;5017377;28;20504;-72
2022/05/22 10:00:03;;;;;;;5.68;2.90;;;;;;;;;;5017517;28;20099;-73
2022/05/22 10:02:50;;;;;;;3.72;2.28;;;;;;;;;;5017255;28;20052;-73
2022/05/22 10:05:43;;;;;;;8.60;2.90;;;;;;;;;;5004035;28;20080;-72
2022/05/22 10:08:17;;;;;;;5.15;3.15;;;;;;;;;;4995237;28;20038;-73
2022/05/22 10:11:04;;;;;;;5.95;2.95;;;;;;;;;;5005402;28;20050;-73
2022/05/22 10:13:36;;;;;;;6.32;2.88;;;;;;;;;;5007156;28;20058;-73
2022/05/22 10:16:05;;;;;;;5.40;2.95;;;;;;;;;;5007299;28;20521;-73
2022/05/22 10:18:41;;;;;;;3.65;2.30;;;;;;;;;;5005282;28;20033;-73
2022/05/22 10:21:13;;;;;;;6.40;2.92;;;;;;;;;;5006074;28;20042;-74
2022/05/22 10:23:46;;;;;;;7.13;3.33;;;;;;;;;;5005574;28;20034;-74
2022/05/22 10:26:21;;;;;;;4.18;2.80;;;;;;;;;;5000130;28;20042;-74
2022/05/22 10:28:53;;;;;;;7.10;2.90;;;;;;;;;;4997055;28;20041;-74
2022/05/22 10:31:23;;;;;;;3.25;2.33;;;;;;;;;;5009942;28;20053;-74
2022/05/22 10:34:01;;;;;;;9.38;2.65;;;;;;;;;;5003514;28;20066;-73
2022/05/22 10:36:31;;;;;;;8.65;2.63;;;;;;;;;;4996410;28;20045;-73
2022/05/22 10:39:01;;;;;;;6.15;2.70;;;;;;;;;;4996512;28;20072;-73
2022/05/22 10:44:35;;;;;;;4.30;2.20;;;;;;;;;;4982562;28;20037;-73
2022/05/22 10:47:02;;;;;;;4.35;2.45;;;;;;;;;;5010053;28;20046;-73
2022/05/22 10:49:42;;;;;;;5.07;2.58;;;;;;;;;;5008712;28;20034;-73
2022/05/22 10:52:10;;;;;;;5.80;3.23;;;;;;;;;;4994644;28;20042;-74
2022/05/22 10:54:43;;;;;;;6.72;3.10;;;;;;;;;;4996236;28;20054;-73
2022/05/22 10:57:12;;;;;;;4.35;2.88;;;;;;;;;;4997957;28;20096;-73
2022/05/22 10:59:38;;;;;;;4.47;2.85;;;;;;;;;;4987381;28;20043;-73
2022/05/22 11:02:04;;;;;;;4.25;2.90;;;;;;;;;;4997366;28;20517;-73
2022/05/22 11:04:44;;;;;;;7.07;3.55;;;;;;;;;;4996225;28;20042;-73
2022/05/22 11:07:11;;;;;;;6.40;3.47;;;;;;;;;;4996717;28;20063;-73
2022/05/22 11:09:48;;;;;;;6.70;3.15;;;;;;;;;;4996666;28;20077;-74
2022/05/22 11:12:34;;;;;;;6.85;3.20;;;;;;;;;;5012058;28;20085;-74
2022/05/22 11:15:12;;;;;;;4.40;3.13;;;;;;;;;;5015615;28;20057;-73
2022/05/22 11:17:38;;;;;;;4.30;3.10;;;;;;;;;;5015977;28;20141;-74
2022/05/22 11:20:30;;;;;;;3.42;2.80;;;;;;;;;;5015698;28;20046;-73
2022/05/22 11:23:21;;;;;;;8.40;3.97;;;;;;;;;;4994122;28;20046;-73
2022/05/22 11:26:06;;;;;;;6.78;3.60;;;;;;;;;;4996720;28;20121;-74
2022/05/22 11:28:41;;;;;;;4.85;3.97;;;;;;;;;;4996423;28;20077;-74
2022/05/22 11:31:27;;;;;;;7.20;3.25;;;;;;;;;;4996190;28;20189;-74
2022/05/22 11:33:53;;;;;;;4.18;3.40;;;;;;;;;;5004822;28;20053;-73
2022/05/22 11:36:32;;;;;;;5.80;3.60;;;;;;;;;;5004221;28;20042;-74
2022/05/22 11:39:09;;;;;;;8.38;3.88;;;;;;;;;;4998685;28;20070;-74
2022/05/22 11:41:37;;;;;;;5.60;3.78;;;;;;;;;;5015794;28;20052;-74
2022/05/22 11:44:09;;;;;;;6.63;4.05;;;;;;;;;;5015522;28;20389;-74
2022/05/22 11:46:50;;;;;;;3.70;3.30;;;;;;;;;;5015151;28;20057;-73
2022/05/22 11:49:24;;;;;;;6.53;3.38;;;;;;;;;;4992364;28;20052;-74
2022/05/22 11:52:05;;;;;;;6.82;3.70;;;;;;;;;;4995261;28;20046;-74
2022/05/22 11:54:34;;;;;;;7.28;3.80;;;;;;;;;;5002871;28;20038;-75
2022/05/22 11:57:01;;;;;;;5.75;3.83;;;;;;;;;;5006400;28;20066;-74
2022/05/22 11:59:37;;;;;;;5.03;3.55;;;;;;;;;;4995029;28;20076;-74
2022/05/22 12:02:24;;;;;;;6.43;3.90;;;;;;;;;;4995499;28;20120;-74
2022/05/22 12:05:03;;;;;;;6.47;3.67;;;;;;;;;;4995373;28;20042;-74
2022/05/22 12:07:44;;;;;;;5.18;3.65;;;;;;;;;;4994261;28;20073;-75
2022/05/22 12:10:15;;;;;;;6.55;3.80;;;;;;;;;;4998190;28;20069;-74
2022/05/22 12:12:52;;;;;;;5.97;3.35;;;;;;;;;;5014282;28;20405;-74
2022/05/22 12:15:25;;;;;;;4.28;3.38;;;;;;;;;;5013955;28;20401;-74
2022/05/22 12:17:57;;;;;;;5.72;3.67;;;;;;;;;;5005209;28;20124;-75
2022/05/22 12:20:42;;;;;;;6.68;3.40;;;;;;;;;;5004807;28;20050;-74
2022/05/22 12:23:14;;;;;;;5.45;3.55;;;;;;;;;;5012911;28;20064;-73
2022/05/22 12:25:45;;;;;;;5.18;3.95;;;;;;;;;;5013542;28;20053;-73
2022/05/22 12:28:31;;;;;;;7.63;4.13;;;;;;;;;;5013658;28;20492;-73
2022/05/22 12:30:58;;;;;;;6.50;3.60;;;;;;;;;;5013357;28;20112;-73
2022/05/22 12:33:27;;;;;;;7.47;3.42;;;;;;;;;;5014251;28;20042;-73
2022/05/22 12:35:54;;;;;;;6.82;3.85;;;;;;;;;;4996407;28;20205;-73
2022/05/22 12:38:20;;;;;;;7.03;3.70;;;;;;;;;;4992273;28;20085;-73
2022/05/22 12:41:05;;;;;;;4.97;3.60;;;;;;;;;;4993106;28;20054;-73
2022/05/22 12:43:32;;;;;;;6.60;3.90;;;;;;;;;;4994211;28;20034;-73
2022/05/22 12:46:03;;;;;;;8.40;3.90;;;;;;;;;;4995113;28;20046;-73
2022/05/22 12:48:32;;;;;;;6.20;3.38;;;;;;;;;;4994501;28;20034;-73
2022/05/22 12:51:17;;;;;;;9.95;3.83;;;;;;;;;;4993588;28;20045;-73
2022/05/22 12:53:46;;;;;;;8.73;4.18;;;;;;;;;;4993793;28;20068;-73
2022/05/22 12:56:20;;;;;;;7.78;3.67;;;;;;;;;;5013852;28;20523;-73
2022/05/22 12:58:55;;;;;;;6.07;4.10;;;;;;;;;;5013272;28;20397;-73
2022/05/22 13:01:37;;;;;;;5.75;3.65;;;;;;;;;;5014008;28;20128;-73
2022/05/22 13:04:18;;;;;;;9.00;4.00;;;;;;;;;;5013975;28;20062;-73
2022/05/22 13:06:44;;;;;;;6.95;3.80;;;;;;;;;;5010793;28;20133;-73
2022/05/22 13:09:21;;;;;;;7.68;3.60;;;;;;;;;;5011474;28;20034;-73
2022/05/22 13:11:55;;;;;;;8.20;3.45;;;;;;;;;;5012952;28;20129;-74
2022/05/22 13:14:33;;;;;;;5.93;3.50;;;;;;;;;;5013736;28;20066;-74
2022/05/22 13:16:59;;;;;;;5.40;3.15;;;;;;;;;;4998323;28;20050;-74
2022/05/22 13:19:27;;;;;;;5.97;3.50;;;;;;;;;;4993790;28;20069;-74
2022/05/22 13:21:53;;;;;;;5.55;3.42;;;;;;;;;;4993803;28;20514;-74
2022/05/22 13:24:28;;;;;;;6.35;3.95;;;;;;;;;;4992935;28;20134;-74
2022/05/22 13:27:04;;;;;;;9.18;3.95;;;;;;;;;;4995338;28;20046;-74
2022/05/22 13:29:41;;;;;;;9.45;3.65;;;;;;;;;;4994201;28;20065;-74
2022/05/22 13:32:12;;;;;;;7.05;3.53;;;;;;;;;;4993286;28;20104;-74
2022/05/22 13:34:39;;;;;;;6.95;3.75;;;;;;;;;;4993652;28;20104;-75
2022/05/22 13:37:07;;;;;;;5.07;3.47;;;;;;;;;;4993978;28;20035;-74
2022/05/22 13:39:33;;;;;;;8.90;3.50;;;;;;;;;;5001432;28;20034;-74
2022/05/22 13:42:01;;;;;;;5.65;3.75;;;;;;;;;;5011839;28;20050;-73
2022/05/22 13:44:33;;;;;;;7.28;3.55;;;;;;;;;;5017217;28;20034;-73
2022/05/22 13:47:13;;;;;;;5.75;3.60;;;;;;;;;;5006077;28;20046;-73
2022/05/22 13:49:39;;;;;;;6.05;3.60;;;;;;;;;;4996828;28;20042;-72
2022/05/22 13:52:36;;;;;;;6.40;3.60;;;;;;;;;;4997156;28;20042;-73
2022/05/22 13:55:10;;;;;;;5.78;3.35;;;;;;;;;;4996582;28;20505;-73
2022/05/22 13:57:38;;;;;;;7.20;3.72;;;;;;;;;;4996873;28;20129;-73
2022/05/22 14:00:13;;;;;;;6.47;3.72;;;;;;;;;;5015608;28;20038;-73
2022/05/22 14:02:58;;;;;;;5.75;3.90;;;;;;;;;;5016410;28;20108;-73
2022/05/22 14:05:40;;;;;;;7.03;4.10;;;;;;;;;;5013219;28;20129;-73
2022/05/22 14:08:11;;;;;;;4.75;4.07;;;;;;;;;;5013037;28;20975;-73
2022/05/22 14:10:39;;;;;;;6.90;4.03;;;;;;;;;;5016478;28;20453;-74
2022/05/22 14:13:14;;;;;;;6.43;3.38;;;;;;;;;;5016045;28;20046;-74
2022/05/22 14:15:47;;;;;;;7.10;3.85;;;;;;;;;;5016813;28;20100;-73
2022/05/22 14:18:14;;;;;;;5.55;3.55;;;;;;;;;;5016668;28;20121;-73
2022/05/22 14:20:43;;;;;;;6.75;4.00;;;;;;;;;;5015931;28;20533;-73
2022/05/22 14:23:12;;;;;;;6.32;4.07;;;;;;;;;;4995423;28;20173;-73
2022/05/22 14:25:40;;;;;;;7.60;4.38;;;;;;;;;;5013738;28;20065;-73
2022/05/22 14:28:07;;;;;;;7.65;4.25;;;;;;;;;;5016270;28;20050;-73
2022/05/22 14:30:33;;;;;;;6.97;4.45;;;;;;;;;;5015761;28;20045;-73
2022/05/22 14:33:07;;;;;;;5.18;4.30;;;;;;;;;;5015704;28;20550;-74
2022/05/22 14:35:38;;;;;;;6.15;4.20;;;;;;;;;;5015060;28;20042;-74
2022/05/22 14:38:24;;;;;;;6.63;4.55;;;;;;;;;;5015324;28;20042;-73
2022/05/22 14:40:52;;;;;;;9.27;4.60;;;;;;;;;;5015253;28;20044;-73
2022/05/22 14:43:20;;;;;;;9.57;4.90;;;;;;;;;;5014522;28;20042;-73
2022/05/22 14:45:48;;;;;;;6.40;4.60;;;;;;;;;;5014252;28;20547;-73
2022/05/22 14:48:17;;;;;;;8.45;5.22;;;;;;;;;;5015013;28;20053;-72
2022/05/22 14:50:48;;;;;;;7.47;4.70;;;;;;;;;;5014837;28;20038;-73
2022/05/22 14:53:17;;;;;;;5.22;4.72;;;;;;;;;;5013075;28;20081;-73
2022/05/22 14:55:45;;;;;;;7.17;5.37;;;;;;;;;;5002698;28;20104;-72
2022/05/22 14:58:21;;;;;;;10.70;4.93;;;;;;;;;;5015240;28;20117;-74